x

Sentry Shoal (46131) Wave Buoy

5:00pm - Fri 27th Mar 2015 All times are PDT. -7 hours from GMT.

  • Sig Wave height 3.0ft
  • Peak Period 4s
  • Wind
    18mph, 22mph gusts
  • Sea Temp 49°f
  • Air Temp 52°f
  • Sea Pressure 1010.4mb
  • Sentry Shoal
  • Sentry Shoal

More Historic Weather Station data

Upgrade to MSW Pro to gain access to the past 30 days of data for over 8000 Wavebouys and Weather Stations around the globe.

Join Pro

Comparision Forecast

View Surf forecast
   
Fri 03/27 5:00pm 3ft 4s 18 22 mph 1010.4mb 49f 52f
4:00pm 3ft 4s 18 22 mph 1010.5mb 49f 52f
3:00pm 3.5ft 4s 18 25 mph 1011.4mb 49f 53f
2:00pm 4ft 4s 22 27 mph 1011.3mb 49f 54f
1:00pm 3.5ft 4s 25 29 mph 1011.7mb 49f 53f
12:00pm 2.5ft 4s 18 22 mph 1012.6mb 49f 52f
11:00am 2.5ft 4s 16 18 mph 1013.7mb 49f 51f
10:00am 1.6ft 4s 13 20 mph 1014.4mb 49f 51f
9:00am 1.3ft 3s 9 11 mph 1014.6mb 49f 50f
8:00am 1.6ft 3s 16 18 mph 1014.6mb 49f 51f
7:00am 1.6ft 3s 13 16 mph 1014.7mb 49f 51f
6:00am 1.3ft 4s 16
mph
1015.2mb 49f 51f
5:00am 1.3ft 3s 13
mph
1015.8mb 49f 51f
4:00am 1.3ft 3s 16 18 mph 1016.4mb 49f 51f
3:00am 1.3ft 3s 16 18 mph 1017.1mb 49f 52f
2:00am 1ft 2s 13 16 mph 1017.7mb 49f 51f
1:00am 1ft 3s 9 11 mph 1018.8mb 49f 51f
12:00am 1.3ft 3s 11
mph
1019.4mb 49f 52f
Thu 03/26 11:00pm 1ft 3s 13 16 mph 1019.7mb 49f 52f
10:00pm 1ft 3s 13 16 mph 1019.9mb 49f 52f
9:00pm 1ft 3s 13 16 mph 1020.3mb 49f 53f
8:00pm 1ft 4s 11
mph
1020.3mb 49f 51f
7:00pm 1.3ft 4s 7 9 mph 1020.7mb 49f 52f
6:00pm 1.6ft 3s 16 18 mph 1020.8mb 49f 53f
5:00pm 1.6ft 4s 11 13 mph 1021.6mb 49f 52f
4:00pm 2ft 4s 9 11 mph 1022.1mb 49f 52f
3:00pm 2.5ft 4s 16 20 mph 1022.2mb 49f 53f
2:00pm 2.5ft 4s 18 22 mph 1022.5mb 49f 52f
1:00pm 2.5ft 4s 16 18 mph 1022.8mb 49f 51f
12:00pm 3ft 4s 20 22 mph 1022.8mb 49f 52f
11:00am 3.5ft 4s 18 22 mph 1022.8mb 49f 51f
10:00am 3.5ft 4s 22 27 mph 1022.7mb 49f 52f
9:00am 3.5ft 4s 27 29 mph 1022.3mb 49f 52f
8:00am 3.5ft 4s 18 22 mph 1022.4mb 49f 51f
7:00am 3.5ft 5s 18 22 mph 1022.2mb 49f 51f
6:00am 3.5ft 5s 25 29 mph 1021.7mb 49f 52f
5:00am 4ft 4s 20 25 mph 1022.2mb 49f 52f
4:00am 4.5ft 5s 18 22 mph 1022.2mb 49f 51f
3:00am 4ft 5s 20 25 mph 1022.1mb 49f 51f
2:00am 4ft 5s 18 22 mph 1022mb 49f 51f
1:00am 3.5ft 4s 9 13 mph 1022.3mb 49f 50f
12:00am 2.5ft 4s 11 13 mph 1022.1mb 49f 50f
Wed 03/25 11:00pm 2.5ft 4s 13 16 mph 1022.2mb 49f 50f
10:00pm 2ft 4s 11 13 mph 1022mb 49f 49f
9:00pm 1.6ft 4s 9 11 mph 1022mb 49f 49f
8:00pm 1.6ft 4s 13 18 mph 1021.6mb 49f 49f
7:00pm 1.6ft 5s 13 16 mph 1021.7mb 49f 49f
6:00pm 2.5ft 4s 11 13 mph 1022.1mb 49f 49f
5:00pm 3ft 5s 13 16 mph 1021.9mb 49f 49f
4:00pm 3.5ft 5s 13 16 mph 1021.7mb 49f 48f
3:00pm 3ft 5s 13 16 mph 1021.4mb 49f 48f
2:00pm 3.5ft 5s 16 18 mph 1020.9mb 49f 47f
1:00pm 3.5ft 5s 16 18 mph 1021.2mb 49f 47f
12:00pm 4.5ft 6s 18 20 mph 1020.8mb 49f 47f
11:00am 4.5ft 6s 18 22 mph 1020.2mb 49f 47f
10:00am 5ft 6s 20 22 mph 1019.8mb 49f 46f
9:00am 4.5ft 5s 25 29 mph 1019.1mb 49f 46f
8:00am 4.5ft 6s 22 27 mph 1018.7mb 49f 46f
7:00am 4.5ft 5s 22 29 mph 1018.2mb 49f 46f
6:00am 4.5ft 5s 25 31 mph 1018.2mb 49f 47f
5:00am 4ft 5s 25 29 mph 1018.4mb 49f 47f
4:00am 4ft 4s 27 29 mph 1018.6mb 49f 46f
3:00am 3.5ft 4s 25 29 mph 1019.6mb 49f 46f
2:00am 3ft 4s 25 27 mph 1020.1mb 49f 47f
1:00am 2ft 3s 22 27 mph 1020mb 49f 49f
12:00am 1.6ft 3s 22 25 mph 1020.2mb 49f 48f
Tue 03/24 11:00pm 2ft 3s 9 13 mph 1021mb 49f 49f
10:00pm 2.5ft 4s 18 22 mph 1020.7mb 49f 50f
9:00pm 2.5ft 4s 18 22 mph 1020.5mb 49f 50f
8:00pm 2ft 3s 22 27 mph 1020.2mb 49f 50f
7:00pm 1.6ft 3s 18 22 mph 1020.5mb 49f 49f
6:00pm 1.3ft 3s 13 18 mph 1021.1mb 49f 49f
5:00pm 1ft 3s 16 18 mph 1021.2mb 49f 49f
4:00pm 0.7ft 2s 11 16 mph 1020.9mb 49f 49f
3:00pm 0.3ft 2s 11
mph
1020.9mb 49f 48f
2:00pm 0.3ft 3s 9
mph
1020.9mb 49f 48f
1:00pm  -  4s 7 9 mph 1020.6mb 49f 47f
12:00pm 0.3ft 3s 7 9 mph 1020.1mb 49f 47f
11:00am 0.3ft 2s 2
mph
1019.7mb 49f 47f
10:00am 0.3ft 2s 2 4 mph 1018.9mb 49f 46f
9:00am 0.3ft 2s 4 7 mph 1018.1mb 48f 45f
8:00am 0.7ft 2s 9
mph
1017.3mb 48f 45f
7:00am 1ft 2s 11 13 mph 1016.6mb 49f 44f
6:00am 1ft 3s 13
mph
1016mb 49f 44f
5:00am 1ft 3s 13 16 mph 1015.5mb 49f 45f
4:00am 1ft 2s 9 11 mph 1014.9mb 49f 46f
3:00am 1.3ft 3s 2 4 mph 1014.6mb 49f 46f
2:00am 1ft 3s 11 13 mph 1013.9mb 49f 46f